sensor_id;sensor_type;location;lat;lon;timestamp;P1;durP1;ratioP1;P2;durP2;ratioP2
30149;SDS011;16962;48.646;9.026;2023-03-26T00:00:48;6.25;;;2.45;;
30149;SDS011;16962;48.646;9.026;2023-03-26T00:03:35;8.82;;;2.35;;
30149;SDS011;16962;48.646;9.026;2023-03-26T00:06:28;8.27;;;2.05;;
30149;SDS011;16962;48.646;9.026;2023-03-26T00:09:19;14.43;;;2.80;;
30149;SDS011;16962;48.646;9.026;2023-03-26T00:12:13;8.93;;;3.03;;
30149;SDS011;16962;48.646;9.026;2023-03-26T00:15:01;7.18;;;2.80;;
30149;SDS011;16962;48.646;9.026;2023-03-26T00:17:50;8.73;;;2.78;;
30149;SDS011;16962;48.646;9.026;2023-03-26T00:20:39;10.70;;;2.47;;
30149;SDS011;16962;48.646;9.026;2023-03-26T00:23:27;7.35;;;2.47;;
30149;SDS011;16962;48.646;9.026;2023-03-26T00:26:16;7.15;;;2.50;;
30149;SDS011;16962;48.646;9.026;2023-03-26T00:29:04;13.30;;;2.55;;
30149;SDS011;16962;48.646;9.026;2023-03-26T00:31:57;7.13;;;2.50;;
30149;SDS011;16962;48.646;9.026;2023-03-26T00:34:45;10.23;;;2.40;;
30149;SDS011;16962;48.646;9.026;2023-03-26T00:37:37;6.95;;;2.50;;
30149;SDS011;16962;48.646;9.026;2023-03-26T00:40:27;5.07;;;1.95;;
30149;SDS011;16962;48.646;9.026;2023-03-26T00:43:16;11.23;;;2.60;;
30149;SDS011;16962;48.646;9.026;2023-03-26T00:46:07;9.60;;;2.20;;
30149;SDS011;16962;48.646;9.026;2023-03-26T00:48:54;8.63;;;1.90;;
30149;SDS011;16962;48.646;9.026;2023-03-26T00:51:45;5.25;;;1.88;;
30149;SDS011;16962;48.646;9.026;2023-03-26T00:54:33;8.43;;;2.22;;
30149;SDS011;16962;48.646;9.026;2023-03-26T00:57:21;7.00;;;2.13;;
30149;SDS011;16962;48.646;9.026;2023-03-26T01:00:28;13.07;;;2.40;;
30149;SDS011;16962;48.646;9.026;2023-03-26T01:03:23;8.98;;;2.25;;
30149;SDS011;16962;48.646;9.026;2023-03-26T01:06:21;8.38;;;1.75;;
30149;SDS011;16962;48.646;9.026;2023-03-26T01:09:19;7.50;;;2.08;;
30149;SDS011;16962;48.646;9.026;2023-03-26T01:12:13;11.15;;;2.53;;
30149;SDS011;16962;48.646;9.026;2023-03-26T01:15:04;7.25;;;2.17;;
30149;SDS011;16962;48.646;9.026;2023-03-26T01:17:53;11.75;;;2.90;;
30149;SDS011;16962;48.646;9.026;2023-03-26T01:20:43;8.73;;;2.00;;
30149;SDS011;16962;48.646;9.026;2023-03-26T01:23:39;11.13;;;2.87;;
30149;SDS011;16962;48.646;9.026;2023-03-26T01:29:40;11.90;;;2.75;;
30149;SDS011;16962;48.646;9.026;2023-03-26T01:32:51;11.27;;;2.35;;
30149;SDS011;16962;48.646;9.026;2023-03-26T01:35:56;5.03;;;2.30;;
30149;SDS011;16962;48.646;9.026;2023-03-26T01:42:01;7.25;;;2.10;;
30149;SDS011;16962;48.646;9.026;2023-03-26T01:45:02;9.48;;;2.00;;
30149;SDS011;16962;48.646;9.026;2023-03-26T01:48:00;7.97;;;2.03;;
30149;SDS011;16962;48.646;9.026;2023-03-26T01:50:47;12.32;;;2.08;;
30149;SDS011;16962;48.646;9.026;2023-03-26T01:53:43;11.13;;;2.45;;
30149;SDS011;16962;48.646;9.026;2023-03-26T01:59:59;11.82;;;2.55;;
30149;SDS011;16962;48.646;9.026;2023-03-26T02:03:20;8.52;;;2.83;;
30149;SDS011;16962;48.646;9.026;2023-03-26T02:09:19;10.75;;;2.20;;
30149;SDS011;16962;48.646;9.026;2023-03-26T02:12:10;11.00;;;2.28;;
30149;SDS011;16962;48.646;9.026;2023-03-26T02:15:00;5.60;;;2.17;;
30149;SDS011;16962;48.646;9.026;2023-03-26T02:17:47;14.25;;;2.53;;
30149;SDS011;16962;48.646;9.026;2023-03-26T02:20:35;13.73;;;2.38;;
30149;SDS011;16962;48.646;9.026;2023-03-26T02:23:30;6.88;;;2.50;;
30149;SDS011;16962;48.646;9.026;2023-03-26T02:26:21;10.23;;;2.72;;
30149;SDS011;16962;48.646;9.026;2023-03-26T02:29:12;11.25;;;2.13;;
30149;SDS011;16962;48.646;9.026;2023-03-26T02:32:00;10.25;;;2.42;;
30149;SDS011;16962;48.646;9.026;2023-03-26T02:34:47;8.70;;;2.28;;
30149;SDS011;16962;48.646;9.026;2023-03-26T02:37:37;11.55;;;1.98;;
30149;SDS011;16962;48.646;9.026;2023-03-26T02:40:42;12.25;;;2.47;;
30149;SDS011;16962;48.646;9.026;2023-03-26T02:43:29;4.65;;;2.10;;
30149;SDS011;16962;48.646;9.026;2023-03-26T02:46:17;9.07;;;2.00;;
30149;SDS011;16962;48.646;9.026;2023-03-26T02:49:05;8.50;;;2.00;;
30149;SDS011;16962;48.646;9.026;2023-03-26T02:51:52;10.25;;;2.38;;
30149;SDS011;16962;48.646;9.026;2023-03-26T02:54:41;8.80;;;2.67;;
30149;SDS011;16962;48.646;9.026;2023-03-26T02:57:31;8.38;;;2.53;;
30149;SDS011;16962;48.646;9.026;2023-03-26T03:00:18;9.80;;;2.38;;
30149;SDS011;16962;48.646;9.026;2023-03-26T03:03:09;10.45;;;2.58;;
30149;SDS011;16962;48.646;9.026;2023-03-26T03:05:56;8.85;;;2.63;;
30149;SDS011;16962;48.646;9.026;2023-03-26T03:08:46;8.82;;;2.80;;
30149;SDS011;16962;48.646;9.026;2023-03-26T03:11:34;11.02;;;2.13;;
30149;SDS011;16962;48.646;9.026;2023-03-26T03:14:24;11.68;;;2.78;;
30149;SDS011;16962;48.646;9.026;2023-03-26T03:17:11;9.70;;;1.95;;
30149;SDS011;16962;48.646;9.026;2023-03-26T03:19:59;13.68;;;2.65;;
30149;SDS011;16962;48.646;9.026;2023-03-26T03:22:46;8.07;;;2.70;;
30149;SDS011;16962;48.646;9.026;2023-03-26T03:25:34;7.40;;;2.20;;
30149;SDS011;16962;48.646;9.026;2023-03-26T03:28:21;13.93;;;2.60;;
30149;SDS011;16962;48.646;9.026;2023-03-26T03:31:10;10.00;;;2.42;;
30149;SDS011;16962;48.646;9.026;2023-03-26T03:33:57;9.63;;;2.30;;
30149;SDS011;16962;48.646;9.026;2023-03-26T03:36:44;8.98;;;2.22;;
30149;SDS011;16962;48.646;9.026;2023-03-26T03:39:33;11.25;;;2.42;;
30149;SDS011;16962;48.646;9.026;2023-03-26T03:42:21;6.75;;;2.20;;
30149;SDS011;16962;48.646;9.026;2023-03-26T03:45:08;8.25;;;2.58;;
30149;SDS011;16962;48.646;9.026;2023-03-26T03:47:56;12.98;;;2.90;;
30149;SDS011;16962;48.646;9.026;2023-03-26T03:50:47;10.25;;;2.70;;
30149;SDS011;16962;48.646;9.026;2023-03-26T03:53:34;9.00;;;2.50;;
30149;SDS011;16962;48.646;9.026;2023-03-26T03:56:28;9.00;;;2.65;;
30149;SDS011;16962;48.646;9.026;2023-03-26T03:59:18;7.68;;;2.25;;
30149;SDS011;16962;48.646;9.026;2023-03-26T04:02:06;4.95;;;2.30;;
30149;SDS011;16962;48.646;9.026;2023-03-26T04:04:53;11.98;;;2.60;;
30149;SDS011;16962;48.646;9.026;2023-03-26T04:07:43;10.27;;;2.63;;
30149;SDS011;16962;48.646;9.026;2023-03-26T04:10:31;17.35;;;2.67;;
30149;SDS011;16962;48.646;9.026;2023-03-26T04:13:18;11.77;;;2.67;;
30149;SDS011;16962;48.646;9.026;2023-03-26T04:16:05;14.48;;;2.60;;
30149;SDS011;16962;48.646;9.026;2023-03-26T04:18:53;11.55;;;2.60;;
30149;SDS011;16962;48.646;9.026;2023-03-26T04:21:40;9.50;;;2.60;;
30149;SDS011;16962;48.646;9.026;2023-03-26T04:24:31;11.63;;;2.95;;
30149;SDS011;16962;48.646;9.026;2023-03-26T04:27:28;6.75;;;2.45;;
30149;SDS011;16962;48.646;9.026;2023-03-26T04:30:17;12.85;;;2.75;;
30149;SDS011;16962;48.646;9.026;2023-03-26T04:33:09;8.65;;;2.35;;
30149;SDS011;16962;48.646;9.026;2023-03-26T04:36:01;6.43;;;2.40;;
30149;SDS011;16962;48.646;9.026;2023-03-26T04:38:49;9.32;;;2.10;;
30149;SDS011;16962;48.646;9.026;2023-03-26T04:41:37;9.30;;;2.80;;
30149;SDS011;16962;48.646;9.026;2023-03-26T04:44:27;8.73;;;2.75;;
30149;SDS011;16962;48.646;9.026;2023-03-26T04:47:19;9.85;;;2.53;;
30149;SDS011;16962;48.646;9.026;2023-03-26T04:50:11;14.55;;;2.60;;
30149;SDS011;16962;48.646;9.026;2023-03-26T04:52:58;15.15;;;2.63;;
30149;SDS011;16962;48.646;9.026;2023-03-26T04:55:57;10.15;;;2.88;;
30149;SDS011;16962;48.646;9.026;2023-03-26T04:58:49;9.23;;;3.00;;
30149;SDS011;16962;48.646;9.026;2023-03-26T05:01:37;13.60;;;3.30;;
30149;SDS011;16962;48.646;9.026;2023-03-26T05:04:27;11.25;;;3.13;;
30149;SDS011;16962;48.646;9.026;2023-03-26T05:07:20;11.93;;;3.13;;
30149;SDS011;16962;48.646;9.026;2023-03-26T05:10:14;8.90;;;2.58;;
30149;SDS011;16962;48.646;9.026;2023-03-26T05:13:05;14.98;;;2.85;;
30149;SDS011;16962;48.646;9.026;2023-03-26T05:15:52;6.13;;;2.28;;
30149;SDS011;16962;48.646;9.026;2023-03-26T05:18:42;9.75;;;2.95;;
30149;SDS011;16962;48.646;9.026;2023-03-26T05:21:29;9.52;;;2.50;;
30149;SDS011;16962;48.646;9.026;2023-03-26T05:24:16;11.20;;;2.92;;
30149;SDS011;16962;48.646;9.026;2023-03-26T05:27:05;14.45;;;2.95;;
30149;SDS011;16962;48.646;9.026;2023-03-26T05:29:52;13.10;;;2.92;;
30149;SDS011;16962;48.646;9.026;2023-03-26T05:32:48;11.35;;;2.50;;
30149;SDS011;16962;48.646;9.026;2023-03-26T05:35:38;9.15;;;2.50;;
30149;SDS011;16962;48.646;9.026;2023-03-26T05:38:27;9.82;;;2.83;;
30149;SDS011;16962;48.646;9.026;2023-03-26T05:41:15;14.00;;;2.72;;
30149;SDS011;16962;48.646;9.026;2023-03-26T05:44:03;9.75;;;2.80;;
30149;SDS011;16962;48.646;9.026;2023-03-26T05:46:53;8.18;;;2.90;;
30149;SDS011;16962;48.646;9.026;2023-03-26T05:49:40;10.82;;;2.67;;
30149;SDS011;16962;48.646;9.026;2023-03-26T05:52:28;12.65;;;2.75;;
30149;SDS011;16962;48.646;9.026;2023-03-26T05:55:17;11.27;;;2.70;;
30149;SDS011;16962;48.646;9.026;2023-03-26T05:58:21;8.15;;;2.70;;
30149;SDS011;16962;48.646;9.026;2023-03-26T06:01:15;11.95;;;3.30;;
30149;SDS011;16962;48.646;9.026;2023-03-26T06:04:13;8.93;;;2.83;;
30149;SDS011;16962;48.646;9.026;2023-03-26T06:10:10;12.38;;;2.45;;
30149;SDS011;16962;48.646;9.026;2023-03-26T06:13:18;11.93;;;2.85;;
30149;SDS011;16962;48.646;9.026;2023-03-26T06:16:10;9.18;;;2.60;;
30149;SDS011;16962;48.646;9.026;2023-03-26T06:19:21;11.88;;;2.83;;
30149;SDS011;16962;48.646;9.026;2023-03-26T06:22:12;9.80;;;2.95;;
30149;SDS011;16962;48.646;9.026;2023-03-26T06:25:00;14.02;;;2.90;;
30149;SDS011;16962;48.646;9.026;2023-03-26T06:28:00;12.60;;;4.28;;
30149;SDS011;16962;48.646;9.026;2023-03-26T06:30:58;9.82;;;3.30;;
30149;SDS011;16962;48.646;9.026;2023-03-26T06:33:52;7.18;;;2.70;;
30149;SDS011;16962;48.646;9.026;2023-03-26T06:36:40;11.30;;;3.28;;
30149;SDS011;16962;48.646;9.026;2023-03-26T06:39:27;11.20;;;3.25;;
30149;SDS011;16962;48.646;9.026;2023-03-26T06:42:17;11.98;;;3.25;;
30149;SDS011;16962;48.646;9.026;2023-03-26T06:45:04;17.40;;;2.70;;
30149;SDS011;16962;48.646;9.026;2023-03-26T06:47:52;9.27;;;2.42;;
30149;SDS011;16962;48.646;9.026;2023-03-26T06:50:40;12.35;;;3.35;;
30149;SDS011;16962;48.646;9.026;2023-03-26T06:53:27;9.15;;;2.50;;
30149;SDS011;16962;48.646;9.026;2023-03-26T06:56:14;9.43;;;2.60;;
30149;SDS011;16962;48.646;9.026;2023-03-26T06:59:02;8.82;;;2.25;;
30149;SDS011;16962;48.646;9.026;2023-03-26T07:01:50;13.95;;;3.25;;
30149;SDS011;16962;48.646;9.026;2023-03-26T07:04:37;13.52;;;2.88;;
30149;SDS011;16962;48.646;9.026;2023-03-26T07:07:25;8.00;;;2.17;;
30149;SDS011;16962;48.646;9.026;2023-03-26T07:10:13;9.13;;;2.50;;
30149;SDS011;16962;48.646;9.026;2023-03-26T07:13:03;10.13;;;2.53;;
30149;SDS011;16962;48.646;9.026;2023-03-26T07:15:52;9.70;;;2.63;;
30149;SDS011;16962;48.646;9.026;2023-03-26T07:18:40;12.20;;;2.60;;
30149;SDS011;16962;48.646;9.026;2023-03-26T07:21:29;14.20;;;2.30;;
30149;SDS011;16962;48.646;9.026;2023-03-26T07:24:19;10.15;;;2.50;;
30149;SDS011;16962;48.646;9.026;2023-03-26T07:36:56;10.05;;;3.55;;
30149;SDS011;16962;48.646;9.026;2023-03-26T07:46:48;16.27;;;3.70;;
30149;SDS011;16962;48.646;9.026;2023-03-26T07:49:38;17.10;;;3.80;;
30149;SDS011;16962;48.646;9.026;2023-03-26T07:52:26;8.93;;;2.80;;
30149;SDS011;16962;48.646;9.026;2023-03-26T07:55:14;14.02;;;3.90;;
30149;SDS011;16962;48.646;9.026;2023-03-26T07:58:08;14.60;;;3.47;;
30149;SDS011;16962;48.646;9.026;2023-03-26T08:00:58;10.48;;;2.72;;
30149;SDS011;16962;48.646;9.026;2023-03-26T08:04:12;11.15;;;2.90;;
30149;SDS011;16962;48.646;9.026;2023-03-26T08:07:17;15.73;;;3.50;;
30149;SDS011;16962;48.646;9.026;2023-03-26T08:10:22;8.15;;;3.03;;
30149;SDS011;16962;48.646;9.026;2023-03-26T08:13:24;13.77;;;4.32;;
30149;SDS011;16962;48.646;9.026;2023-03-26T08:16:13;20.00;;;3.67;;
30149;SDS011;16962;48.646;9.026;2023-03-26T08:19:06;17.20;;;4.20;;
30149;SDS011;16962;48.646;9.026;2023-03-26T08:22:18;19.83;;;4.20;;
30149;SDS011;16962;48.646;9.026;2023-03-26T08:31:49;20.83;;;5.57;;
30149;SDS011;16962;48.646;9.026;2023-03-26T08:34:37;13.95;;;4.32;;
30149;SDS011;16962;48.646;9.026;2023-03-26T08:37:26;14.77;;;4.22;;
30149;SDS011;16962;48.646;9.026;2023-03-26T08:40:17;10.48;;;3.75;;
30149;SDS011;16962;48.646;9.026;2023-03-26T09:06:07;11.65;;;3.15;;
30149;SDS011;16962;48.646;9.026;2023-03-26T10:06:48;6.72;;;1.42;;
30149;SDS011;16962;48.646;9.026;2023-03-26T10:36:36;2.33;;;1.00;;
30149;SDS011;16962;48.646;9.026;2023-03-26T10:58:33;1.55;;;0.82;;
30149;SDS011;16962;48.646;9.026;2023-03-26T11:08:47;1.77;;;1.00;;
30149;SDS011;16962;48.646;9.026;2023-03-26T11:20:48;2.42;;;0.90;;
30149;SDS011;16962;48.646;9.026;2023-03-26T11:24:25;2.42;;;0.88;;
30149;SDS011;16962;48.646;9.026;2023-03-26T11:33:46;2.05;;;0.82;;
30149;SDS011;16962;48.646;9.026;2023-03-26T11:36:48;1.42;;;0.90;;
30149;SDS011;16962;48.646;9.026;2023-03-26T11:39:49;3.38;;;0.82;;
30149;SDS011;16962;48.646;9.026;2023-03-26T11:42:45;1.80;;;0.90;;
30149;SDS011;16962;48.646;9.026;2023-03-26T11:45:47;3.83;;;1.33;;
30149;SDS011;16962;48.646;9.026;2023-03-26T11:48:49;2.97;;;0.80;;
30149;SDS011;16962;48.646;9.026;2023-03-26T11:51:45;1.58;;;0.80;;
30149;SDS011;16962;48.646;9.026;2023-03-26T11:54:42;1.40;;;0.70;;
30149;SDS011;16962;48.646;9.026;2023-03-26T11:57:36;2.80;;;0.90;;
30149;SDS011;16962;48.646;9.026;2023-03-26T12:00:31;1.45;;;0.70;;
30149;SDS011;16962;48.646;9.026;2023-03-26T12:03:31;1.70;;;0.90;;
30149;SDS011;16962;48.646;9.026;2023-03-26T12:06:31;3.50;;;0.85;;
30149;SDS011;16962;48.646;9.026;2023-03-26T12:09:55;1.67;;;0.90;;
30149;SDS011;16962;48.646;9.026;2023-03-26T12:16:22;1.58;;;1.00;;
30149;SDS011;16962;48.646;9.026;2023-03-26T12:19:18;2.30;;;0.98;;
30149;SDS011;16962;48.646;9.026;2023-03-26T12:22:54;1.52;;;0.73;;
30149;SDS011;16962;48.646;9.026;2023-03-26T12:25:23;1.55;;;0.80;;
30149;SDS011;16962;48.646;9.026;2023-03-26T12:28:17;3.30;;;1.05;;
30149;SDS011;16962;48.646;9.026;2023-03-26T12:31:11;3.10;;;1.00;;
30149;SDS011;16962;48.646;9.026;2023-03-26T12:34:14;2.70;;;0.90;;
30149;SDS011;16962;48.646;9.026;2023-03-26T12:37:06;4.38;;;1.15;;
30149;SDS011;16962;48.646;9.026;2023-03-26T12:40:27;2.10;;;0.90;;
30149;SDS011;16962;48.646;9.026;2023-03-26T12:43:36;2.10;;;0.90;;
30149;SDS011;16962;48.646;9.026;2023-03-26T12:46:50;4.10;;;1.00;;
30149;SDS011;16962;48.646;9.026;2023-03-26T12:50:14;1.92;;;0.88;;
30149;SDS011;16962;48.646;9.026;2023-03-26T12:53:10;4.80;;;1.00;;
30149;SDS011;16962;48.646;9.026;2023-03-26T13:09:07;4.40;;;1.00;;
30149;SDS011;16962;48.646;9.026;2023-03-26T13:12:46;7.72;;;1.33;;
30149;SDS011;16962;48.646;9.026;2023-03-26T13:15:51;1.88;;;0.90;;
30149;SDS011;16962;48.646;9.026;2023-03-26T13:37:18;5.25;;;1.17;;
30149;SDS011;16962;48.646;9.026;2023-03-26T13:41:05;2.67;;;0.73;;
30149;SDS011;16962;48.646;9.026;2023-03-26T13:46:43;4.40;;;2.05;;
30149;SDS011;16962;48.646;9.026;2023-03-26T13:49:45;5.00;;;1.05;;
30149;SDS011;16962;48.646;9.026;2023-03-26T13:52:54;3.88;;;1.25;;
30149;SDS011;16962;48.646;9.026;2023-03-26T13:56:06;3.08;;;1.67;;
30149;SDS011;16962;48.646;9.026;2023-03-26T13:59:00;4.30;;;1.15;;
30149;SDS011;16962;48.646;9.026;2023-03-26T14:01:59;3.22;;;1.27;;
30149;SDS011;16962;48.646;9.026;2023-03-26T14:05:06;5.53;;;1.33;;
30149;SDS011;16962;48.646;9.026;2023-03-26T14:08:18;5.45;;;1.30;;
30149;SDS011;16962;48.646;9.026;2023-03-26T14:11:14;3.87;;;1.60;;
30149;SDS011;16962;48.646;9.026;2023-03-26T14:14:11;4.63;;;1.77;;
30149;SDS011;16962;48.646;9.026;2023-03-26T14:17:14;8.88;;;3.78;;
30149;SDS011;16962;48.646;9.026;2023-03-26T14:36:00;2.10;;;1.30;;
30149;SDS011;16962;48.646;9.026;2023-03-26T14:54:23;4.32;;;1.20;;
30149;SDS011;16962;48.646;9.026;2023-03-26T15:44:52;12.32;;;6.28;;
30149;SDS011;16962;48.646;9.026;2023-03-26T15:48:01;18.52;;;10.48;;
30149;SDS011;16962;48.646;9.026;2023-03-26T15:51:13;18.85;;;9.93;;
30149;SDS011;16962;48.646;9.026;2023-03-26T15:57:46;2.00;;;1.55;;
30149;SDS011;16962;48.646;9.026;2023-03-26T16:10:42;1.65;;;1.00;;
30149;SDS011;16962;48.646;9.026;2023-03-26T16:13:16;2.08;;;1.00;;
30149;SDS011;16962;48.646;9.026;2023-03-26T16:23:05;0.93;;;0.93;;
30149;SDS011;16962;48.646;9.026;2023-03-26T16:26:21;1.52;;;1.20;;
30149;SDS011;16962;48.646;9.026;2023-03-26T16:29:24;1.20;;;1.00;;
30149;SDS011;16962;48.646;9.026;2023-03-26T16:32:27;1.17;;;0.77;;
30149;SDS011;16962;48.646;9.026;2023-03-26T16:35:34;2.35;;;1.20;;
30149;SDS011;16962;48.646;9.026;2023-03-26T16:38:44;2.22;;;1.38;;
30149;SDS011;16962;48.646;9.026;2023-03-26T16:44:33;1.20;;;1.10;;
30149;SDS011;16962;48.646;9.026;2023-03-26T16:54:24;1.60;;;0.98;;
30149;SDS011;16962;48.646;9.026;2023-03-26T16:57:33;2.35;;;1.13;;
30149;SDS011;16962;48.646;9.026;2023-03-26T17:19:05;1.45;;;1.35;;
30149;SDS011;16962;48.646;9.026;2023-03-26T17:32:02;2.05;;;1.00;;
30149;SDS011;16962;48.646;9.026;2023-03-26T17:35:00;9.80;;;3.45;;
30149;SDS011;16962;48.646;9.026;2023-03-26T17:37:50;32.60;;;8.15;;
30149;SDS011;16962;48.646;9.026;2023-03-26T17:49:30;2.53;;;1.13;;
30149;SDS011;16962;48.646;9.026;2023-03-26T17:52:22;1.58;;;1.15;;
30149;SDS011;16962;48.646;9.026;2023-03-26T17:55:35;2.60;;;1.30;;
30149;SDS011;16962;48.646;9.026;2023-03-26T17:58:41;2.72;;;1.35;;
30149;SDS011;16962;48.646;9.026;2023-03-26T18:01:34;3.17;;;1.70;;
30149;SDS011;16962;48.646;9.026;2023-03-26T18:04:32;5.15;;;4.30;;
30149;SDS011;16962;48.646;9.026;2023-03-26T18:19:27;3.40;;;2.10;;
30149;SDS011;16962;48.646;9.026;2023-03-26T18:22:24;6.03;;;3.58;;
30149;SDS011;16962;48.646;9.026;2023-03-26T18:25:27;2.63;;;1.58;;
30149;SDS011;16962;48.646;9.026;2023-03-26T18:28:19;1.80;;;1.65;;
30149;SDS011;16962;48.646;9.026;2023-03-26T18:31:23;2.60;;;1.55;;
30149;SDS011;16962;48.646;9.026;2023-03-26T18:34:15;2.00;;;1.60;;
30149;SDS011;16962;48.646;9.026;2023-03-26T18:39:57;1.90;;;1.60;;
30149;SDS011;16962;48.646;9.026;2023-03-26T18:43:00;4.18;;;2.33;;
30149;SDS011;16962;48.646;9.026;2023-03-26T18:45:50;4.25;;;2.08;;
30149;SDS011;16962;48.646;9.026;2023-03-26T18:48:40;4.20;;;2.30;;
30149;SDS011;16962;48.646;9.026;2023-03-26T18:51:29;6.28;;;2.83;;
30149;SDS011;16962;48.646;9.026;2023-03-26T18:54:26;4.88;;;2.53;;
30149;SDS011;16962;48.646;9.026;2023-03-26T18:57:26;2.22;;;1.95;;
30149;SDS011;16962;48.646;9.026;2023-03-26T19:00:22;1.52;;;1.42;;
30149;SDS011;16962;48.646;9.026;2023-03-26T19:03:15;1.40;;;1.30;;
30149;SDS011;16962;48.646;9.026;2023-03-26T19:06:11;3.08;;;1.80;;
30149;SDS011;16962;48.646;9.026;2023-03-26T19:12:20;6.63;;;2.42;;
30149;SDS011;16962;48.646;9.026;2023-03-26T19:15:15;2.85;;;2.30;;
30149;SDS011;16962;48.646;9.026;2023-03-26T19:18:04;3.65;;;1.92;;
30149;SDS011;16962;48.646;9.026;2023-03-26T19:20:59;3.08;;;1.80;;
30149;SDS011;16962;48.646;9.026;2023-03-26T19:23:51;2.28;;;1.40;;
30149;SDS011;16962;48.646;9.026;2023-03-26T19:26:42;2.28;;;1.70;;
30149;SDS011;16962;48.646;9.026;2023-03-26T19:29:33;4.57;;;1.80;;
30149;SDS011;16962;48.646;9.026;2023-03-26T19:32:31;3.10;;;1.90;;
30149;SDS011;16962;48.646;9.026;2023-03-26T19:35:22;3.03;;;1.70;;
30149;SDS011;16962;48.646;9.026;2023-03-26T19:38:17;1.50;;;1.40;;
30149;SDS011;16962;48.646;9.026;2023-03-26T19:44:27;1.35;;;1.20;;
30149;SDS011;16962;48.646;9.026;2023-03-26T19:47:22;1.10;;;1.00;;
30149;SDS011;16962;48.646;9.026;2023-03-26T19:50:34;1.10;;;0.90;;
30149;SDS011;16962;48.646;9.026;2023-03-26T19:53:30;0.90;;;0.90;;
30149;SDS011;16962;48.646;9.026;2023-03-26T19:56:25;0.82;;;0.82;;
30149;SDS011;16962;48.646;9.026;2023-03-26T19:59:24;1.10;;;1.00;;
30149;SDS011;16962;48.646;9.026;2023-03-26T20:02:18;1.30;;;1.20;;
30149;SDS011;16962;48.646;9.026;2023-03-26T20:05:17;1.10;;;0.98;;
30149;SDS011;16962;48.646;9.026;2023-03-26T20:08:12;1.63;;;1.20;;
30149;SDS011;16962;48.646;9.026;2023-03-26T20:11:08;1.73;;;1.50;;
30149;SDS011;16962;48.646;9.026;2023-03-26T20:14:29;2.47;;;1.00;;
30149;SDS011;16962;48.646;9.026;2023-03-26T20:17:30;0.88;;;0.88;;
30149;SDS011;16962;48.646;9.026;2023-03-26T20:20:21;1.67;;;1.05;;
30149;SDS011;16962;48.646;9.026;2023-03-26T20:23:17;1.38;;;0.85;;
30149;SDS011;16962;48.646;9.026;2023-03-26T20:26:15;0.70;;;0.70;;
30149;SDS011;16962;48.646;9.026;2023-03-26T20:29:20;1.40;;;1.02;;
30149;SDS011;16962;48.646;9.026;2023-03-26T20:32:54;1.88;;;0.90;;
30149;SDS011;16962;48.646;9.026;2023-03-26T20:35:54;2.83;;;1.10;;
30149;SDS011;16962;48.646;9.026;2023-03-26T20:38:47;2.60;;;1.52;;
30149;SDS011;16962;48.646;9.026;2023-03-26T20:41:44;1.30;;;1.10;;
30149;SDS011;16962;48.646;9.026;2023-03-26T20:44:44;2.30;;;1.63;;
30149;SDS011;16962;48.646;9.026;2023-03-26T20:47:34;1.40;;;1.30;;
30149;SDS011;16962;48.646;9.026;2023-03-26T20:50:27;2.15;;;1.30;;
30149;SDS011;16962;48.646;9.026;2023-03-26T20:53:20;1.38;;;1.27;;
30149;SDS011;16962;48.646;9.026;2023-03-26T20:56:17;1.88;;;1.00;;
30149;SDS011;16962;48.646;9.026;2023-03-26T20:59:10;1.73;;;1.20;;
30149;SDS011;16962;48.646;9.026;2023-03-26T21:02:20;4.78;;;1.25;;
30149;SDS011;16962;48.646;9.026;2023-03-26T21:05:13;5.97;;;1.55;;
30149;SDS011;16962;48.646;9.026;2023-03-26T21:08:13;3.35;;;1.20;;
30149;SDS011;16962;48.646;9.026;2023-03-26T21:14:47;0.93;;;0.90;;
30149;SDS011;16962;48.646;9.026;2023-03-26T21:17:46;1.90;;;1.27;;
30149;SDS011;16962;48.646;9.026;2023-03-26T21:20:38;2.17;;;1.67;;
30149;SDS011;16962;48.646;9.026;2023-03-26T21:23:35;1.90;;;1.50;;
30149;SDS011;16962;48.646;9.026;2023-03-26T21:26:29;2.03;;;1.50;;
30149;SDS011;16962;48.646;9.026;2023-03-26T21:29:29;5.20;;;2.25;;
30149;SDS011;16962;48.646;9.026;2023-03-26T21:32:22;4.00;;;1.90;;
30149;SDS011;16962;48.646;9.026;2023-03-26T21:35:13;3.38;;;1.80;;
30149;SDS011;16962;48.646;9.026;2023-03-26T21:38:30;1.65;;;1.55;;
30149;SDS011;16962;48.646;9.026;2023-03-26T21:41:44;2.55;;;1.58;;
30149;SDS011;16962;48.646;9.026;2023-03-26T21:44:51;2.78;;;1.90;;
30149;SDS011;16962;48.646;9.026;2023-03-26T21:47:39;4.45;;;1.83;;
30149;SDS011;16962;48.646;9.026;2023-03-26T21:50:33;2.88;;;1.98;;
30149;SDS011;16962;48.646;9.026;2023-03-26T21:53:21;3.15;;;1.77;;
30149;SDS011;16962;48.646;9.026;2023-03-26T21:59:35;2.80;;;1.70;;
30149;SDS011;16962;48.646;9.026;2023-03-26T22:02:52;3.72;;;1.65;;
30149;SDS011;16962;48.646;9.026;2023-03-26T22:06:02;2.03;;;1.77;;
30149;SDS011;16962;48.646;9.026;2023-03-26T22:09:04;1.50;;;1.40;;
30149;SDS011;16962;48.646;9.026;2023-03-26T22:11:59;3.95;;;1.40;;
30149;SDS011;16962;48.646;9.026;2023-03-26T22:14:55;2.13;;;1.33;;
30149;SDS011;16962;48.646;9.026;2023-03-26T22:17:53;5.20;;;1.73;;
30149;SDS011;16962;48.646;9.026;2023-03-26T22:20:41;5.93;;;2.03;;
30149;SDS011;16962;48.646;9.026;2023-03-26T22:23:36;4.38;;;1.80;;
30149;SDS011;16962;48.646;9.026;2023-03-26T22:26:26;2.50;;;2.20;;
30149;SDS011;16962;48.646;9.026;2023-03-26T22:29:17;7.07;;;1.63;;
30149;SDS011;16962;48.646;9.026;2023-03-26T22:32:08;6.05;;;2.10;;
30149;SDS011;16962;48.646;9.026;2023-03-26T22:35:20;6.18;;;2.10;;
30149;SDS011;16962;48.646;9.026;2023-03-26T22:38:17;3.38;;;2.10;;
30149;SDS011;16962;48.646;9.026;2023-03-26T22:41:10;8.23;;;2.35;;
30149;SDS011;16962;48.646;9.026;2023-03-26T22:44:03;4.57;;;2.13;;
30149;SDS011;16962;48.646;9.026;2023-03-26T22:47:06;2.97;;;2.53;;
30149;SDS011;16962;48.646;9.026;2023-03-26T22:49:57;3.72;;;2.10;;
30149;SDS011;16962;48.646;9.026;2023-03-26T22:52:47;4.32;;;2.88;;
30149;SDS011;16962;48.646;9.026;2023-03-26T22:55:45;5.60;;;2.20;;
30149;SDS011;16962;48.646;9.026;2023-03-26T22:58:34;2.88;;;2.00;;
30149;SDS011;16962;48.646;9.026;2023-03-26T23:01:25;1.70;;;1.60;;
30149;SDS011;16962;48.646;9.026;2023-03-26T23:04:18;3.30;;;1.63;;
30149;SDS011;16962;48.646;9.026;2023-03-26T23:07:17;2.30;;;1.50;;
30149;SDS011;16962;48.646;9.026;2023-03-26T23:10:07;2.28;;;1.30;;
30149;SDS011;16962;48.646;9.026;2023-03-26T23:12:55;2.42;;;1.65;;
30149;SDS011;16962;48.646;9.026;2023-03-26T23:16:28;1.60;;;1.50;;
30149;SDS011;16962;48.646;9.026;2023-03-26T23:18:57;3.35;;;1.25;;
30149;SDS011;16962;48.646;9.026;2023-03-26T23:21:44;1.15;;;1.05;;
30149;SDS011;16962;48.646;9.026;2023-03-26T23:24:37;3.80;;;1.40;;
30149;SDS011;16962;48.646;9.026;2023-03-26T23:27:28;3.03;;;1.10;;
30149;SDS011;16962;48.646;9.026;2023-03-26T23:30:21;1.75;;;1.13;;
30149;SDS011;16962;48.646;9.026;2023-03-26T23:33:12;2.15;;;1.40;;
30149;SDS011;16962;48.646;9.026;2023-03-26T23:36:00;1.48;;;1.20;;
30149;SDS011;16962;48.646;9.026;2023-03-26T23:38:58;1.63;;;1.20;;
30149;SDS011;16962;48.646;9.026;2023-03-26T23:41:49;1.13;;;1.13;;
30149;SDS011;16962;48.646;9.026;2023-03-26T23:44:41;1.23;;;1.10;;
30149;SDS011;16962;48.646;9.026;2023-03-26T23:47:39;1.90;;;1.40;;
30149;SDS011;16962;48.646;9.026;2023-03-26T23:50:35;7.05;;;1.50;;
30149;SDS011;16962;48.646;9.026;2023-03-26T23:53:29;2.67;;;1.20;;
30149;SDS011;16962;48.646;9.026;2023-03-26T23:56:26;1.50;;;1.25;;
30149;SDS011;16962;48.646;9.026;2023-03-26T23:59:17;1.63;;;1.30;;
